Time;durP1;ratioP1;P1;durP2;ratioP2;P2;SDS_P1;SDS_P2;PMS_P1;PMS_P2;Temp;Humidity;BMP_temperature;BMP_pressure;BME280_temperature;BME280_humidity;BME280_pressure;Samples;Min_cycle;Max_cycle;Signal;HPM_P1;HPM_P2
2021/08/19 00:00:24;;;;;;;1.48;0.95;;;;;;;17.57;61.34;92716.66;4957246;28;20046;-91
2021/08/19 00:02:49;;;;;;;1.15;1.00;;;;;;;17.65;61.21;92706.00;4940341;28;20058;-92
2021/08/19 00:05:18;;;;;;;2.45;1.13;;;;;;;17.72;61.30;92716.06;4953406;28;20047;-91
2021/08/19 00:08:17;;;;;;;;;;;;;;;;;;;;;
2021/08/19 00:10:54;;;;;;;0.73;0.65;;;;;;;17.69;61.84;92703.47;4958748;28;20043;-92
2021/08/19 00:13:28;;;;;;;0.70;0.68;;;;;;;17.66;62.65;92710.19;4940524;29;20058;-92
2021/08/19 00:16:11;;;;;;;1.70;1.02;;;;;;;17.64;61.89;92706.31;4944166;28;20535;-92
2021/08/19 00:18:39;;;;;;;;;;;;;;;17.71;62.61;92721.69;4942097;29;20093;-91
2021/08/19 00:21:09;;;;;;;1.73;0.93;;;;;;;17.61;62.39;92707.75;4958104;28;20004;-91
2021/08/19 00:23:44;;;;;;;1.52;1.08;;;;;;;17.62;62.63;92713.81;4932544;28;20047;-92
2021/08/19 00:26:15;;;;;;;1.92;1.20;;;;;;;17.61;62.72;92713.03;4941638;29;20484;-91
2021/08/19 00:28:58;;;;;;;2.75;1.75;;;;;;;17.59;61.02;92709.16;4942300;28;20098;-91
2021/08/19 00:31:27;;;;;;;1.08;0.80;;;;;;;17.61;61.62;92707.75;4942070;29;20047;-91
2021/08/19 00:34:02;;;;;;;;;;;;;;;;;;;;;
2021/08/19 00:36:34;;;;;;;2.35;1.20;;;;;;;17.65;60.55;92706.00;4957439;29;20062;-91
2021/08/19 00:39:09;;;;;;;2.38;1.52;;;;;;;17.68;60.70;92707.22;4943880;28;20181;-90
2021/08/19 00:41:38;;;;;;;1.33;1.15;;;;;;;17.73;60.79;92708.91;4941444;29;20514;-92
2021/08/19 00:44:15;;;;;;;1.83;1.00;;;;;;;17.68;61.09;92702.69;4957313;29;20041;-92
2021/08/19 00:46:47;;;;;;;1.05;0.80;;;;;;;17.72;61.37;92708.13;4957896;28;20058;-91
2021/08/19 00:49:20;;;;;;;0.85;0.65;;;;;;;17.67;61.55;92701.16;4945313;28;20129;-91
2021/08/19 00:51:48;;;;;;;1.77;1.15;;;;;;;17.64;61.27;92695.72;4957786;28;20051;-91
2021/08/19 00:54:22;;;;;;;2.00;1.10;;;;;;;17.64;61.54;92696.50;4938070;29;20035;-91
2021/08/19 00:57:01;;;;;;;1.15;0.77;;;;;;;17.61;61.71;92697.16;4940885;29;20048;-92
2021/08/19 01:00:05;;;;;;;0.98;0.82;;;;;;;17.56;62.16;92689.41;4938668;29;20082;-91
2021/08/19 01:02:34;;;;;;;0.73;0.57;;;;;;;17.52;62.25;92685.88;4982715;28;20054;-91
2021/08/19 01:05:08;;;;;;;1.03;0.90;;;;;;;17.49;62.13;92683.84;4952426;28;20051;-91
2021/08/19 01:07:38;;;;;;;1.20;0.70;;;;;;;17.48;61.86;92684.97;4952640;28;20074;-91
2021/08/19 01:10:05;;;;;;;2.92;1.20;;;;;;;17.49;62.00;92691.78;4963070;28;20050;-92
2021/08/19 01:12:43;;;;;;;1.33;0.80;;;;;;;17.42;62.61;92683.59;4975672;28;20547;-92
2021/08/19 01:15:24;;;;;;;1.95;0.93;;;;;;;17.41;62.61;92684.72;4973738;28;20046;-91
2021/08/19 01:18:02;;;;;;;1.48;0.88;;;;;;;17.37;63.02;92692.50;4956944;28;20407;-91
2021/08/19 01:20:38;;;;;;;1.25;0.82;;;;;;;17.27;63.05;92677.81;4963196;28;20530;-92
2021/08/19 01:23:07;;;;;;;1.63;1.15;;;;;;;17.22;63.46;92679.84;4947292;28;20050;-91
2021/08/19 01:25:32;;;;;;;1.95;0.82;;;;;;;17.23;63.60;92692.00;4962727;28;20480;-90
2021/08/19 01:28:11;;;;;;;1.10;0.73;;;;;;;17.16;63.97;92691.75;4962762;28;20074;-92
2021/08/19 01:30:37;;;;;;;1.23;0.70;;;;;;;17.10;63.97;92685.84;4978726;28;20050;-92
2021/08/19 01:33:05;;;;;;;1.20;0.88;;;;;;;17.05;64.08;92686.81;4960866;28;20039;-91
2021/08/19 01:35:40;;;;;;;0.88;0.63;;;;;;;16.96;64.15;92683.44;4978554;28;20042;-91
2021/08/19 01:38:08;;;;;;;1.80;1.27;;;;;;;16.98;64.87;92691.06;4962439;28;20535;-90
2021/08/19 01:40:54;;;;;;;1.95;1.15;;;;;;;16.88;65.42;92678.22;4975211;28;20042;-91
2021/08/19 01:43:44;;;;;;;1.75;0.85;;;;;;;16.91;65.38;92694.22;4958938;28;20057;-92
2021/08/19 01:46:18;;;;;;;3.70;1.55;;;;;;;16.81;65.44;92692.69;4975214;28;20050;-91
2021/08/19 01:48:49;;;;;;;0.47;0.40;;;;;;;16.75;66.03;92691.31;4942296;28;20050;-91
2021/08/19 01:51:33;;;;;;;1.10;0.68;;;;;;;16.62;66.68;92679.88;4952434;28;20085;-92
2021/08/19 01:54:05;;;;;;;1.55;0.75;;;;;;;16.63;66.75;92685.91;4973939;28;20097;-92
2021/08/19 01:56:50;;;;;;;1.33;0.88;;;;;;;16.56;66.98;92683.00;4978464;28;20089;-91
2021/08/19 01:59:19;;;;;;;7.53;1.08;;;;;;;16.51;66.76;92689.25;4976344;28;20081;-93
2021/08/19 02:02:00;;;;;;;1.65;0.90;;;;;;;16.45;66.67;92688.63;4958140;28;20105;-92
2021/08/19 02:04:43;;;;;;;1.00;0.80;;;;;;;16.39;66.85;92684.63;4957944;28;20141;-91
2021/08/19 02:07:21;;;;;;;1.40;0.90;;;;;;;16.36;67.11;92682.59;4927634;28;20051;-91
2021/08/19 02:09:49;;;;;;;2.10;0.80;;;;;;;16.29;67.24;92676.28;4932945;28;20039;-92
2021/08/19 02:12:42;;;;;;;1.85;0.85;;;;;;;16.24;66.97;92675.34;4993936;28;20042;-91
2021/08/19 02:15:18;;;;;;;2.20;1.00;;;;;;;16.23;67.05;92673.03;4964408;28;20097;-92
2021/08/19 02:17:47;;;;;;;0.90;0.73;;;;;;;16.19;67.74;92669.47;4962212;28;20046;-92
2021/08/19 02:20:18;;;;;;;1.13;0.70;;;;;;;16.20;67.09;92676.31;4977806;28;20037;-91
2021/08/19 02:22:53;;;;;;;1.00;0.73;;;;;;;16.16;67.09;92673.50;4953076;28;20038;-92
2021/08/19 02:25:21;;;;;;;0.60;0.52;;;;;;;16.15;67.16;92671.97;4942736;28;20053;-92
2021/08/19 02:27:59;;;;;;;1.38;0.98;;;;;;;16.13;67.24;92668.09;4927297;28;20121;-91
2021/08/19 02:30:33;;;;;;;1.77;1.05;;;;;;;16.14;67.00;92670.41;4942868;28;20070;-91
2021/08/19 02:33:09;;;;;;;;;;;;;;;;;;;;;
2021/08/19 02:35:42;;;;;;;2.08;1.02;;;;;;;16.15;67.39;92681.75;4958605;28;20038;-91
2021/08/19 02:38:14;;;;;;;1.48;0.93;;;;;;;16.03;67.63;92667.34;4958435;28;20129;-91
2021/08/19 02:41:09;;;;;;;;;;;;;;;;;;;;;
2021/08/19 02:43:47;;;;;;;1.42;1.05;;;;;;;16.01;66.67;92668.75;4976963;28;20117;-92
2021/08/19 02:46:20;;;;;;;0.82;0.80;;;;;;;16.06;67.03;92673.09;4961565;28;20050;-91
2021/08/19 02:48:48;;;;;;;1.60;1.13;;;;;;;16.07;66.44;92669.34;4977426;28;20053;-91
2021/08/19 02:51:17;;;;;;;0.88;0.60;;;;;;;16.06;66.37;92667.81;4945094;28;20046;-91
2021/08/19 02:53:55;;;;;;;3.15;1.50;;;;;;;16.08;66.68;92676.19;4959464;28;20042;-92
2021/08/19 02:56:22;;;;;;;0.93;0.88;;;;;;;16.09;66.47;92675.09;4944908;28;20101;-91
2021/08/19 02:58:51;;;;;;;1.67;0.95;;;;;;;16.20;64.83;92678.94;4961436;28;20100;-93
2021/08/19 03:01:38;;;;;;;0.80;0.80;;;;;;;16.32;64.00;92667.72;4962099;28;20050;-92
2021/08/19 03:04:06;;;;;;;1.92;1.13;;;;;;;16.42;63.72;92670.78;4957933;28;20113;-92
2021/08/19 03:06:37;;;;;;;1.77;1.23;;;;;;;16.40;63.52;92658.97;4949680;28;20034;-90
2021/08/19 03:09:05;;;;;;;1.48;0.90;;;;;;;16.42;62.94;92660.22;4956127;28;20051;-91
2021/08/19 03:11:36;;;;;;;0.70;0.70;;;;;;;16.47;62.94;92666.41;4959115;28;20527;-91
2021/08/19 03:14:10;;;;;;;0.60;0.60;;;;;;;16.49;63.12;92664.25;4955084;28;20037;-92
2021/08/19 03:16:42;;;;;;;0.60;0.47;;;;;;;16.53;63.04;92679.13;4977135;28;20042;-91
2021/08/19 03:19:11;;;;;;;1.35;0.73;;;;;;;16.49;62.53;92667.66;4960143;28;20046;-91
2021/08/19 03:21:41;;;;;;;1.80;0.90;;;;;;;16.49;61.15;92662.38;4959977;28;20503;-91
2021/08/19 03:24:13;;;;;;;1.27;1.17;;;;;;;16.50;61.57;92660.50;4960294;28;20034;-92
2021/08/19 03:26:59;;;;;;;1.92;0.90;;;;;;;16.57;61.56;92673.97;4961408;28;20057;-91
2021/08/19 03:29:36;;;;;;;0.50;0.40;;;;;;;16.52;61.81;92656.44;4961629;28;20097;-92
2021/08/19 03:32:23;;;;;;;1.45;1.10;;;;;;;16.59;61.47;92671.78;4956137;28;20599;-92
2021/08/19 03:35:14;;;;;;;;;;;;;;;;;;;;;
2021/08/19 03:37:47;;;;;;;2.83;1.27;;;;;;;16.53;61.51;92665.91;4958303;28;20050;-92
2021/08/19 03:40:20;;;;;;;0.43;0.40;;;;;;;16.48;61.76;92663.44;4954580;28;20039;-91
2021/08/19 03:42:48;;;;;;;1.95;1.00;;;;;;;16.55;61.94;92679.59;4944298;28;20141;-92
2021/08/19 03:45:19;;;;;;;0.57;0.50;;;;;;;16.51;61.73;92669.97;4959327;28;20092;-92
2021/08/19 03:47:46;;;;;;;1.02;0.73;;;;;;;16.47;61.62;92661.13;4959400;28;20073;-92
2021/08/19 03:50:29;;;;;;;0.40;0.40;;;;;;;16.42;62.11;92660.22;4976385;28;20034;-93
2021/08/19 03:53:03;;;;;;;0.60;0.55;;;;;;;16.41;62.63;92665.81;4971576;28;20088;-95
2021/08/19 03:55:34;;;;;;;0.55;0.55;;;;;;;16.46;62.53;92670.94;4985105;28;20050;-93
2021/08/19 03:58:09;;;;;;;0.88;0.57;;;;;;;16.44;62.72;92671.25;4955503;28;20113;-93
2021/08/19 04:00:35;;;;;;;1.30;0.93;;;;;;;16.42;62.44;92670.78;4959994;28;20039;-92
2021/08/19 04:03:03;;;;;;;0.90;0.57;;;;;;;16.39;62.11;92671.44;4974713;28;20511;-91
2021/08/19 04:05:34;;;;;;;1.63;1.00;;;;;;;16.40;61.69;92670.31;4975260;28;20096;-91
2021/08/19 04:08:05;;;;;;;0.85;0.55;;;;;;;16.48;61.49;92679.28;4957781;28;20038;-92
2021/08/19 04:10:58;;;;;;;;;;;;;;;;;;;;;
2021/08/19 04:13:44;;;;;;;1.05;0.80;;;;;;;16.58;60.72;92694.03;4977766;28;20048;-93
2021/08/19 04:16:15;;;;;;;3.65;1.42;;;;;;;16.54;60.87;92683.31;4975750;28;20042;-91
2021/08/19 04:19:10;;;;;;;0.77;0.60;;;;;;;16.55;60.55;92689.38;4974101;28;20058;-93
2021/08/19 04:21:53;;;;;;;1.27;0.65;;;;;;;16.57;59.57;92684.53;4960175;28;20045;-92
2021/08/19 04:24:29;;;;;;;1.85;1.13;;;;;;;16.60;59.91;92681.28;4976442;28;20054;-92
2021/08/19 04:26:55;;;;;;;3.05;1.13;;;;;;;16.62;59.50;92679.09;4955302;28;20162;-92
2021/08/19 04:29:24;;;;;;;0.40;0.38;;;;;;;16.63;59.43;92680.63;4964722;28;20050;-92
2021/08/19 04:31:59;;;;;;;1.55;1.02;;;;;;;16.67;58.69;92686.84;4965244;28;20109;-92
2021/08/19 04:34:36;;;;;;;1.55;0.90;;;;;;;16.71;59.03;92693.03;4961939;28;20054;-91
2021/08/19 04:37:05;;;;;;;2.67;0.85;;;;;;;16.75;58.67;92688.69;4959519;28;20038;-95
2021/08/19 04:40:31;;;;;;;;;;;;;;;;;;;;;
2021/08/19 04:43:37;;;;;;;0.57;0.47;;;;;;;16.83;59.35;92690.50;4979304;28;20133;-93
2021/08/19 04:46:23;;;;;;;;;;;;;;;;;;;;;
2021/08/19 04:48:54;;;;;;;1.23;0.77;;;;;;;16.84;59.24;92692.06;4977201;28;20042;-92
2021/08/19 04:51:49;;;;;;;;;;;;;;;;;;;;;
2021/08/19 04:54:35;;;;;;;0.38;0.38;;;;;;;16.79;59.39;92692.25;4976092;28;20491;-92
2021/08/19 04:57:15;;;;;;;1.50;1.10;;;;;;;16.80;59.68;92695.69;4965190;28;20046;-92
2021/08/19 04:59:54;;;;;;;1.98;1.25;;;;;;;16.78;59.56;92693.31;4962158;28;20042;-92
2021/08/19 05:02:36;;;;;;;1.75;1.33;;;;;;;16.81;60.27;92695.34;4957297;28;20073;-92
2021/08/19 05:05:30;;;;;;;1.08;0.80;;;;;;;16.77;59.99;92693.63;4961169;28;20058;-91
2021/08/19 05:08:18;;;;;;;0.80;0.60;;;;;;;16.75;60.12;92690.53;4975448;28;20042;-92
2021/08/19 05:10:54;;;;;;;;;;;;;;;;;;;;;
2021/08/19 05:13:36;;;;;;;0.95;0.82;;;;;;;16.76;61.03;92706.06;4977373;28;20129;-91
2021/08/19 05:16:11;;;;;;;1.27;0.73;;;;;;;16.68;60.56;92696.31;4962677;28;20129;-93
2021/08/19 05:18:43;;;;;;;0.50;0.50;;;;;;;16.72;61.17;92699.88;4946102;28;20583;-92
2021/08/19 05:21:39;;;;;;;3.05;1.27;;;;;;;16.75;60.84;92703.75;4975988;28;20492;-92
2021/08/19 05:24:41;;;;;;;1.35;0.77;;;;;;;16.75;61.47;92709.03;4958426;28;20085;-93
2021/08/19 05:27:19;;;;;;;;;;;;;;;;;;;;;
2021/08/19 05:30:09;;;;;;;0.82;0.70;;;;;;;16.75;61.94;92703.75;4976377;28;20046;-93
2021/08/19 05:32:54;;;;;;;0.93;0.63;;;;;;;16.75;61.89;92709.03;4976907;28;20050;-91
2021/08/19 05:35:34;;;;;;;0.55;0.55;;;;;;;16.74;62.57;92708.25;4943554;28;20042;-94
2021/08/19 05:38:10;;;;;;;0.50;0.50;;;;;;;16.76;62.87;92700.03;4937695;28;20556;-92
2021/08/19 05:40:47;;;;;;;1.60;1.08;;;;;;;16.79;62.56;92699.38;4944706;28;20046;-92
2021/08/19 05:43:21;;;;;;;2.05;0.75;;;;;;;16.82;62.98;92701.41;4964838;28;20057;-91
2021/08/19 05:45:49;;;;;;;1.67;1.13;;;;;;;16.89;63.96;92716.75;4966138;28;20093;-90
2021/08/19 05:48:25;;;;;;;;;;;;;;;;;;;;;
2021/08/19 05:51:01;;;;;;;1.77;0.88;;;;;;;16.90;64.41;92702.47;4968192;28;20053;-91
2021/08/19 05:53:42;;;;;;;0.47;0.40;;;;;;;16.92;64.68;92705.56;4954428;28;20057;-92
2021/08/19 05:56:35;;;;;;;0.75;0.60;;;;;;;17.02;65.10;92716.56;4953807;28;20057;-92
2021/08/19 05:59:26;;;;;;;0.77;0.60;;;;;;;17.05;64.65;92718.53;4958534;28;20043;-93
2021/08/19 06:01:59;;;;;;;1.23;0.82;;;;;;;16.99;64.65;92703.19;4980204;28;20042;-91
2021/08/19 06:05:04;;;;;;;3.83;0.82;;;;;;;17.05;64.50;92709.84;4964148;28;20056;-92
2021/08/19 06:07:56;;;;;;;0.40;0.40;;;;;;;17.11;64.75;92716.47;4940944;28;20516;-92
2021/08/19 06:10:46;;;;;;;;;;;;;;;;;;;;;
2021/08/19 06:17:19;;;;;;;0.80;0.73;;;;;;;17.18;64.39;92706.19;4954472;28;20049;-93
2021/08/19 06:20:05;;;;;;;0.98;0.75;;;;;;;17.17;64.40;92706.50;4961933;28;20084;-92
2021/08/19 06:22:43;;;;;;;1.20;0.63;;;;;;;17.21;64.41;92708.19;4963874;28;20046;-93
2021/08/19 06:25:42;;;;;;;;;;;;;;;;;;;;;
2021/08/19 06:28:24;;;;;;;0.60;0.60;;;;;;;17.22;64.45;92712.38;4995537;28;20038;-92
2021/08/19 06:31:08;;;;;;;;;;;;;;;;;;;;;
2021/08/19 06:33:57;;;;;;;1.35;0.73;;;;;;;17.19;65.55;92702.44;4977407;28;20137;-92
2021/08/19 06:36:31;;;;;;;1.75;0.88;;;;;;;17.23;65.40;92713.16;4977741;28;20140;-92
2021/08/19 06:39:02;;;;;;;0.55;0.52;;;;;;;17.24;65.23;92718.09;4961108;28;20399;-92
2021/08/19 06:42:01;;;;;;;;;;;;;;;;;;;;;
2021/08/19 06:44:39;;;;;;;1.13;0.80;;;;;;;17.23;65.32;92703.34;4993446;28;20046;-93
2021/08/19 06:47:43;;;;;;;;;;;;;;;;;;;;;
2021/08/19 06:50:29;;;;;;;;;;;;;;;;;;;;;
2021/08/19 06:53:13;;;;;;;;;;;;;;;;;;;;;
2021/08/19 06:55:51;;;;;;;0.70;0.60;;;;;;;17.37;65.54;92712.91;4977666;28;20468;-93
2021/08/19 06:58:29;;;;;;;1.42;1.00;;;;;;;17.45;64.87;92712.84;4957117;28;20054;-91
2021/08/19 07:01:03;;;;;;;0.40;0.40;;;;;;;17.49;64.93;92710.31;4957007;28;20514;-92
2021/08/19 07:03:34;;;;;;;1.05;0.77;;;;;;;17.57;64.37;92706.84;4941315;28;20050;-93
2021/08/19 07:06:15;;;;;;;;;;;;;;;;;;;;;
2021/08/19 07:09:06;;;;;;;1.75;1.02;;;;;;;17.78;63.32;92701.50;4979913;28;20050;-93
2021/08/19 07:11:49;;;;;;;0.55;0.55;;;;;;;18.01;62.40;92715.22;4961093;28;20077;-92
2021/08/19 07:14:37;;;;;;;;;;;;;;;;;;;;;
2021/08/19 07:17:08;;;;;;;2.20;1.20;;;;;;;18.43;59.09;92707.13;4962441;28;20112;-92
2021/08/19 07:19:42;;;;;;;1.23;1.00;;;;;;;18.72;57.58;92710.69;4960863;28;20054;-91
2021/08/19 07:22:22;;;;;;;0.85;0.68;;;;;;;19.04;55.58;92695.78;4968444;28;20038;-91
2021/08/19 07:24:58;;;;;;;0.60;0.55;;;;;;;19.58;52.19;92699.25;4973048;28;20046;-91
2021/08/19 07:27:27;;;;;;;1.65;0.95;;;;;;;19.96;52.10;92706.78;4975833;28;20046;-93
2021/08/19 07:30:08;;;;;;;1.33;0.90;;;;;;;20.17;50.99;92702.03;4960064;28;20046;-92
2021/08/19 07:32:46;;;;;;;0.45;0.45;;;;;;;20.20;49.66;92699.78;4961910;28;20050;-92
2021/08/19 07:35:23;;;;;;;0.85;0.60;;;;;;;20.24;49.49;92695.34;4972438;28;20487;-92
2021/08/19 07:38:25;;;;;;;;;;;;;;;;;;;;;
2021/08/19 07:41:00;;;;;;;1.25;0.77;;;;;;;19.48;52.71;92724.38;4975758;28;20034;-91
2021/08/19 07:43:42;;;;;;;1.20;0.80;;;;;;;19.55;52.22;92711.31;4955171;28;20124;-91
2021/08/19 07:46:20;;;;;;;2.80;1.60;;;;;;;19.64;53.11;92717.25;4975552;28;20582;-92
2021/08/19 07:49:01;;;;;;;3.03;0.88;;;;;;;19.65;53.48;92723.34;4959870;28;20129;-91
2021/08/19 08:01:38;;;;;;;0.43;0.43;;;;;;;19.53;56.20;92727.56;4933346;29;20063;-89
2021/08/19 08:04:14;;;;;;;2.72;1.15;;;;;;;19.31;55.24;92710.25;4934761;29;20098;-90
2021/08/19 08:07:47;;;;;;;;;;;;;;;;;;;;;
2021/08/19 08:10:59;;;;;;;1.50;0.85;;;;;;;19.30;55.28;92729.19;4860163;29;20060;-90
2021/08/19 08:13:42;;;;;;;0.93;0.73;;;;;;;19.28;53.95;92726.84;4858420;29;20523;-89
2021/08/19 08:16:49;;;;;;;;;;;;;;;;;;;;;
2021/08/19 08:23:56;;;;;;;1.05;0.68;;;;;;;19.82;52.11;92743.56;4878847;29;20419;-90
2021/08/19 08:26:44;;;;;;;1.05;0.80;;;;;;;20.01;53.51;92756.22;4877887;29;20037;-92
2021/08/19 08:29:31;;;;;;;0.52;0.50;;;;;;;19.84;52.99;92757.31;4881967;29;20057;-91
2021/08/19 08:36:04;;;;;;;2.45;0.80;;;;;;;20.08;53.45;92772.38;5018157;28;20103;-90
2021/08/19 08:41:55;;;;;;;1.25;0.82;;;;;;;20.05;51.63;92757.09;4938915;28;20041;-91
2021/08/19 08:48:46;;;;;;;0.93;0.63;;;;;;;19.91;54.26;92758.25;4938849;28;20083;-90
2021/08/19 08:51:39;;;;;;;0.68;0.55;;;;;;;20.04;51.68;92759.00;4923770;29;20180;-90
2021/08/19 08:54:37;;;;;;;1.17;0.80;;;;;;;19.95;51.40;92758.38;4901090;29;20101;-91
2021/08/19 09:01:03;;;;;;;1.17;0.77;;;;;;;20.02;50.79;92771.84;4900384;29;20168;-92
2021/08/19 09:03:51;;;;;;;;;;;;;;;;;;;;;
2021/08/19 09:06:40;;;;;;;1.60;0.75;;;;;;;20.06;51.24;92770.06;4975247;28;20055;-89
2021/08/19 09:13:23;;;;;;;;;;;;;;;;;;;;;
2021/08/19 09:16:19;;;;;;;1.50;1.02;;;;;;;20.50;49.96;92786.03;4975037;28;20045;-91
2021/08/19 09:19:09;;;;;;;1.35;0.80;;;;;;;20.51;51.11;92778.81;4956190;29;20421;-91
2021/08/19 09:29:52;;;;;;;0.55;0.40;;;;;;;21.48;47.62;92770.53;4905176;29;20529;-92
2021/08/19 09:32:45;;;;;;;1.63;0.63;;;;;;;21.52;48.65;92771.41;4883568;29;20491;-91
2021/08/19 09:35:18;;;;;;;1.70;0.60;;;;;;;21.48;50.26;92770.53;4884123;29;20051;-94
2021/08/19 09:38:20;;;;;;;4.75;0.98;;;;;;;21.40;47.67;92770.38;4882474;29;20045;-93
2021/08/19 09:41:11;;;;;;;1.45;0.98;;;;;;;21.58;44.99;92762.03;4850943;29;20045;-93
2021/08/19 09:52:16;;;;;;;0.90;0.57;;;;;;;21.78;44.31;92760.16;4979291;28;20435;-95
2021/08/19 09:58:42;;;;;;;1.35;1.00;;;;;;;22.77;41.49;92762.44;4985643;28;20031;-94
2021/08/19 10:01:34;;;;;;;1.55;0.82;;;;;;;22.45;41.85;92757.31;4984009;28;20038;-94
2021/08/19 10:07:46;;;;;;;0.68;0.52;;;;;;;23.47;40.52;92767.38;5095264;23;20033;-80
2021/08/19 10:10:12;;;;;;;0.55;0.50;;;;;;;24.03;39.70;92762.41;4992511;28;20050;-79
2021/08/19 10:12:42;;;;;;;2.35;1.08;;;;;;;23.97;41.26;92761.97;4958361;28;20478;-80
2021/08/19 10:15:09;;;;;;;1.63;0.82;;;;;;;22.60;45.32;92763.66;4965943;28;20445;-79
2021/08/19 10:17:37;;;;;;;1.75;1.35;;;;;;;22.11;46.45;92754.34;4957739;28;20134;-80
2021/08/19 10:20:14;;;;;;;0.82;0.70;;;;;;;22.31;46.00;92757.03;4971830;28;20067;-78
2021/08/19 10:22:40;;;;;;;1.40;0.70;;;;;;;22.46;48.11;92758.84;4957796;28;20074;-78
2021/08/19 10:25:07;;;;;;;1.50;1.00;;;;;;;21.38;48.20;92753.94;4963473;28;20077;-78
2021/08/19 10:27:33;;;;;;;1.13;0.50;;;;;;;21.65;51.10;92756.84;4970916;28;20050;-78
2021/08/19 10:30:20;;;;;;;2.42;1.30;;;;;;;22.16;47.31;92759.41;4971416;28;20055;-78
2021/08/19 10:32:55;;;;;;;0.55;0.40;;;;;;;21.79;49.58;92756.38;4972260;28;20046;-78
2021/08/19 10:35:27;;;;;;;0.60;0.50;;;;;;;22.06;48.68;92757.28;4967449;28;20493;-78
2021/08/19 10:37:52;;;;;;;0.98;0.65;;;;;;;22.54;47.58;92749.84;4972832;28;20034;-78
2021/08/19 10:40:21;;;;;;;1.42;1.02;;;;;;;22.60;47.07;92751.06;4966425;28;20110;-77
2021/08/19 10:42:51;;;;;;;1.08;0.85;;;;;;;22.60;47.79;92756.41;4964729;28;20047;-78
2021/08/19 10:45:29;;;;;;;0.82;0.52;;;;;;;22.49;47.49;92755.44;4965860;28;20122;-78
2021/08/19 10:48:01;;;;;;;1.95;1.15;;;;;;;22.29;47.14;92759.28;4976799;28;20042;-78
2021/08/19 10:50:33;;;;;;;0.55;0.55;;;;;;;21.87;46.29;92757.31;4972871;28;20053;-78
2021/08/19 10:53:22;;;;;;;2.65;1.10;;;;;;;22.05;44.21;92758.44;4971589;28;20050;-77
2021/08/19 10:55:53;;;;;;;1.52;0.77;;;;;;;22.12;45.61;92752.47;4970605;28;20531;-78
2021/08/19 10:58:32;;;;;;;0.80;0.60;;;;;;;21.90;45.19;92745.94;4973364;28;20065;-79
2021/08/19 11:01:00;;;;;;;1.35;1.13;;;;;;;21.31;43.65;92745.81;4958358;28;20055;-78
2021/08/19 11:03:35;;;;;;;0.52;0.50;;;;;;;21.67;46.81;92746.63;4962508;28;20031;-79
2021/08/19 11:06:04;;;;;;;2.28;0.80;;;;;;;21.33;46.65;92746.25;4972090;28;20070;-78
2021/08/19 11:08:45;;;;;;;0.70;0.68;;;;;;;21.41;45.80;92745.31;4912699;28;1162369;-78
2021/08/19 11:11:13;;;;;;;0.70;0.60;;;;;;;20.99;46.54;92745.84;4974430;28;20046;-79
2021/08/19 11:13:40;;;;;;;0.63;0.60;;;;;;;21.82;46.09;92748.47;4973899;28;20057;-79
2021/08/19 11:16:08;;;;;;;0.93;0.77;;;;;;;22.14;45.37;92745.66;4975167;28;20043;-79
2021/08/19 11:18:35;;;;;;;1.38;0.80;;;;;;;22.03;44.38;92747.34;4973746;28;20058;-78
2021/08/19 11:21:03;;;;;;;1.23;0.75;;;;;;;21.86;44.59;92737.84;4973930;28;20035;-80
2021/08/19 11:23:34;;;;;;;1.13;0.68;;;;;;;21.55;42.28;92739.53;4974062;28;20094;-79
2021/08/19 11:26:06;;;;;;;2.33;0.73;;;;;;;21.91;41.32;92737.59;4950965;28;20043;-81
2021/08/19 11:28:44;;;;;;;;;;;;;;;22.16;41.65;92740.75;4940865;28;20121;-79
2021/08/19 11:31:22;;;;;;;1.75;1.05;;;;;;;22.32;40.75;92731.91;4931717;28;20557;-79
2021/08/19 11:33:56;;;;;;;1.75;0.90;;;;;;;21.77;40.95;92740.75;4963906;28;20074;-79
2021/08/19 11:36:23;;;;;;;1.30;0.75;;;;;;;21.80;43.11;92739.28;4956013;28;20066;-79
2021/08/19 11:38:55;;;;;;;0.82;0.57;;;;;;;21.72;44.01;92735.66;4956352;28;20509;-79
2021/08/19 11:41:21;;;;;;;0.95;0.80;;;;;;;22.53;42.73;92737.63;4956780;28;20110;-79
2021/08/19 11:43:48;;;;;;;1.25;1.00;;;;;;;22.47;43.14;92732.94;4956749;28;20488;-78
2021/08/19 11:46:20;;;;;;;0.80;0.65;;;;;;;22.72;42.97;92733.34;4955561;28;20493;-79
2021/08/19 11:48:48;;;;;;;0.40;0.40;;;;;;;21.78;42.23;92734.28;4970325;28;20110;-79
2021/08/19 11:51:23;;;;;;;1.40;0.90;;;;;;;22.22;43.74;92731.38;4960548;28;20039;-79
2021/08/19 11:53:49;;;;;;;1.27;0.77;;;;;;;;;;4968261;28;20046;-78
2021/08/19 11:56:15;;;;;;;0.55;0.50;;;;;;;22.76;42.95;92731.53;4973342;28;20043;-78
2021/08/19 11:58:41;;;;;;;0.70;0.63;;;;;;;22.90;41.78;92729.09;4972479;28;20047;-78
2021/08/19 12:01:09;;;;;;;1.50;0.95;;;;;;;22.72;43.96;92722.69;4971517;28;20070;-78
2021/08/19 12:03:41;;;;;;;1.10;0.70;;;;;;;22.89;44.45;92719.53;4976420;28;20047;-79
2021/08/19 12:06:14;;;;;;;1.02;0.70;;;;;;;22.53;44.48;92721.63;4991828;28;20047;-78
2021/08/19 12:08:47;;;;;;;1.17;0.90;;;;;;;22.95;43.61;92723.47;4966129;28;20098;-78
2021/08/19 12:11:18;;;;;;;1.27;0.85;;;;;;;23.38;44.53;92713.44;4939039;29;20047;-78
2021/08/19 12:13:44;;;;;;;2.10;1.10;;;;;;;23.33;43.64;92716.44;4940819;29;20050;-78
2021/08/19 12:16:10;;;;;;;4.15;0.88;;;;;;;23.25;43.02;92717.44;4940919;29;20050;-78
2021/08/19 12:18:36;;;;;;;0.90;0.73;;;;;;;22.91;43.63;92714.63;4958223;29;20059;-77
2021/08/19 12:21:19;;;;;;;2.17;1.30;;;;;;;22.81;44.98;92704.56;4930811;29;20107;-78
2021/08/19 12:23:47;;;;;;;2.15;1.17;;;;;;;22.98;44.51;92703.28;4958340;29;20046;-79
2021/08/19 12:26:15;;;;;;;2.33;1.48;;;;;;;23.02;45.93;92707.56;4940238;29;20047;-79
2021/08/19 12:28:54;;;;;;;1.48;0.95;;;;;;;22.96;44.85;92706.31;4940391;29;20046;-79
2021/08/19 12:31:20;;;;;;;3.00;0.93;;;;;;;22.84;45.08;92701.16;4957061;28;20047;-78
2021/08/19 12:33:46;;;;;;;1.50;1.02;;;;;;;22.79;46.06;92694.22;4939546;29;20409;-78
2021/08/19 12:36:18;;;;;;;1.65;1.23;;;;;;;23.18;46.07;92690.66;4940403;29;20055;-78
2021/08/19 12:38:46;;;;;;;1.00;0.85;;;;;;;23.42;46.49;92690.22;4957271;29;20067;-78
2021/08/19 12:41:12;;;;;;;0.68;0.65;;;;;;;22.92;46.23;92694.81;4923741;29;20031;-78
2021/08/19 12:43:38;;;;;;;2.50;1.60;;;;;;;23.25;44.75;92688.84;4969731;28;20043;-78
2021/08/19 12:46:08;;;;;;;0.85;0.70;;;;;;;23.42;47.48;92684.13;4928666;29;20496;-78
2021/08/19 12:48:35;;;;;;;1.08;0.80;;;;;;;23.44;44.90;92690.63;4937909;29;20386;-78
2021/08/19 12:51:21;;;;;;;0.98;0.77;;;;;;;23.31;46.46;92688.53;4938366;29;20102;-78
2021/08/19 12:54:04;;;;;;;1.45;0.90;;;;;;;23.37;45.42;92687.88;4956608;29;20043;-78
2021/08/19 12:56:31;;;;;;;2.95;1.08;;;;;;;23.05;46.70;92679.38;4955030;29;20047;-78
2021/08/19 12:58:56;;;;;;;1.85;0.82;;;;;;;23.07;45.11;92685.91;4956560;29;20075;-79
2021/08/19 13:01:22;;;;;;;1.77;1.17;;;;;;;23.28;46.40;92684.66;4938386;29;20082;-78
2021/08/19 13:03:48;;;;;;;1.67;1.10;;;;;;;23.37;44.41;92676.41;4939174;29;20429;-79
2021/08/19 13:06:13;;;;;;;0.77;0.68;;;;;;;22.90;45.30;92667.72;4938215;29;20089;-78
2021/08/19 13:08:39;;;;;;;1.63;1.25;;;;;;;22.81;46.48;92665.28;4934291;29;20573;-79
2021/08/19 13:11:05;;;;;;;0.77;0.65;;;;;;;23.25;45.21;92678.16;4920878;29;20047;-79
2021/08/19 13:13:31;;;;;;;0.75;0.68;;;;;;;22.80;45.79;92673.66;4920714;29;20044;-79
2021/08/19 13:15:57;;;;;;;2.53;1.25;;;;;;;23.39;45.64;92674.91;4936572;29;20047;-79
2021/08/19 13:18:23;;;;;;;1.95;1.13;;;;;;;23.15;45.58;92670.00;4922052;29;20039;-78
2021/08/19 13:20:48;;;;;;;6.78;1.55;;;;;;;23.45;45.52;92678.03;4921997;29;20082;-80
2021/08/19 13:23:14;;;;;;;1.02;0.70;;;;;;;23.14;46.62;92671.13;4910076;29;20092;-78
2021/08/19 13:25:42;;;;;;;1.80;1.10;;;;;;;23.23;44.86;92668.97;4933642;29;20095;-79
2021/08/19 13:28:12;;;;;;;1.85;0.85;;;;;;;23.67;44.73;92665.72;4906469;29;20044;-79
2021/08/19 13:30:37;;;;;;;0.82;0.70;;;;;;;23.32;46.12;92666.78;4937903;29;20035;-79
2021/08/19 13:33:03;;;;;;;2.35;1.77;;;;;;;23.44;44.08;92661.25;4937598;29;20055;-79
2021/08/19 13:35:32;;;;;;;2.90;1.17;;;;;;;23.60;45.57;92662.97;4937943;29;20131;-79
2021/08/19 13:37:58;;;;;;;1.15;0.95;;;;;;;23.75;42.99;92661.25;4937897;29;20056;-79
2021/08/19 13:40:24;;;;;;;1.83;1.25;;;;;;;23.88;43.38;92655.31;4924735;29;20043;-78
2021/08/19 13:42:50;;;;;;;1.40;1.00;;;;;;;23.64;45.80;92661.09;4939568;29;20102;-79
2021/08/19 13:45:17;;;;;;;3.50;2.13;;;;;;;23.53;45.30;92663.66;4931406;29;20132;-79
2021/08/19 13:47:43;;;;;;;2.38;1.20;;;;;;;23.55;43.66;92660.59;4935386;29;20052;-79
2021/08/19 13:50:09;;;;;;;1.33;0.95;;;;;;;23.97;44.90;92656.94;4939006;29;20048;-80
2021/08/19 13:52:35;;;;;;;1.63;1.02;;;;;;;24.15;45.46;92654.44;4938253;29;20127;-79